Time;durP1;ratioP1;P1;durP2;ratioP2;P2;SDS_P1;SDS_P2;PMS_P1;PMS_P2;Temp;Humidity;BMP_temperature;BMP_pressure;BME280_temperature;BME280_humidity;BME280_pressure;Samples;Min_cycle;Max_cycle;Signal;HPM_P1;HPM_P2
2022/02/04 00:07:34;;;;;;;;;;;;;;;;;;2183636;60;14696;-70
2022/02/04 00:21:43;;;;;;;;;;;;;;;;;;2187906;59;15686;-70
2022/02/04 00:24:19;;;;;;;;;;;;;;;;;;2187012;59;18018;-70
2022/02/04 00:27:02;;;;;;;;;;;;;;;;;;2187217;59;22916;-70
2022/02/04 00:29:44;;;;;;;;;;;;;;;;;;2186944;59;31022;-70
2022/02/04 00:32:20;;;;;;;;;;;;;;;;;;2188510;67;18149;-70
2022/02/04 00:35:02;;;;;;;;;;;;;;;;;;2189440;60;15970;-70
2022/02/04 00:37:44;;;;;;;;;;;;;;;;;;2187534;64;20902;-70
2022/02/04 00:40:20;;;;;;;;;;;;;;;;;;2187697;59;18446;-70
2022/02/04 00:43:00;;;;;;;;;;;;;;;;;;2189416;59;19845;-70
2022/02/04 00:45:39;;;;;;;;;;;;;;;;;;2187113;59;18890;-70
2022/02/04 00:48:27;;;;;;;;;;;;;;;;;;2189114;67;25751;-70
2022/02/04 00:51:06;;;;;;;;;;;;;;;;;;2188520;59;18645;-70
2022/02/04 00:53:48;;;;;;;;;;;;;;;;;;2188247;60;15546;-70
2022/02/04 00:56:29;;;;;;;;;;;;;;;;;;2188600;59;15850;-71
2022/02/04 01:13:26;;;;;;;;;;;;;;;;;;2186627;59;14028;-71
2022/02/04 01:27:18;;;;;;;;;;;;;;;;;;2188715;59;18483;-70
2022/02/04 01:30:00;;;;;;;;;;;;;;;;;;2187757;59;21369;-70
2022/02/04 01:32:35;;;;;;;;;;;;;;;;;;2188905;59;28411;-70
2022/02/04 01:35:09;;;;;;;;;;;;;;;;;;2189434;59;18173;-70
2022/02/04 01:37:42;;;;;;;;;;;;;;;;;;2188747;59;25617;-70
2022/02/04 01:40:16;;;;;;;;;;;;;;;;;;2189812;67;15510;-70
2022/02/04 01:42:49;;;;;;;;;;;;;;;;;;2189745;59;15921;-70
2022/02/04 01:45:22;;;;;;;;;;;;;;;;;;2188599;59;15158;-70
2022/02/04 01:47:58;;;;;;;;;;;;;;;;;;2188044;59;26323;-70
2022/02/04 01:50:32;;;;;;;;;;;;;;;;;;2189799;67;18725;-70
2022/02/04 01:53:05;;;;;;;;;;;;;;;;;;2190435;59;19340;-70
2022/02/04 01:55:38;;;;;;;;;;;;;;;;;;2188130;59;15558;-70
2022/02/04 01:58:11;;;;;;;;;;;;;;;;;;2190100;67;16820;-70
2022/02/04 02:00:44;;;;;;;;;;;;;;;;;;2190397;59;22058;-71
2022/02/04 02:03:21;;;;;;;;;;;;;;;;;;2190041;67;21417;-70
2022/02/04 02:05:57;;;;;;;;;;;;;;;;;;2188062;59;18631;-70
2022/02/04 02:08:31;;;;;;;;;;;;;;;;;;2189339;64;18725;-70
2022/02/04 02:11:04;;;;;;;;;;;;;;;;;;2189627;67;16423;-70
2022/02/04 02:13:44;;;;;;;;;;;;;;;;;;2191460;67;18609;-70
2022/02/04 02:16:45;;;;;;;;;;;;;;;;;;2189255;59;19107;-70
2022/02/04 02:45:00;;;;;;;;;;;;;;;;;;2181456;60;14401;-71
2022/02/04 02:47:45;;;;;;;;;;;;;;;;;;2192769;64;20713;-70
2022/02/04 02:50:57;;;;;;;;;;;;;;;;;;2181431;59;32116;-70
2022/02/04 02:59:19;;;;;;;;;;;;;;;;;;2187694;67;14065;-69
2022/02/04 03:01:52;;;;;;;;;;;;;;;;;;2187865;59;16642;-70
2022/02/04 03:04:26;;;;;;;;;;;;;;;;;;2188754;59;17105;-70
2022/02/04 03:06:59;;;;;;;;;;;;;;;;;;2187049;59;23783;-70
2022/02/04 03:09:32;;;;;;;;;;;;;;;;;;2187366;67;17574;-70
2022/02/04 03:12:09;;;;;;;;;;;;;;;;;;2188320;67;14498;-70
2022/02/04 03:14:42;;;;;;;;;;;;;;;;;;2188104;67;17191;-70
2022/02/04 03:17:15;;;;;;;;;;;;;;;;;;2188431;59;17563;-70
2022/02/04 03:19:52;;;;;;;;;;;;;;;;;;2187632;59;21858;-70
2022/02/04 03:22:25;;;;;;;;;;;;;;;;;;2189195;59;15402;-70
2022/02/04 03:25:03;;;;;;;;;;;;;;;;;;2187574;59;17242;-70
2022/02/04 03:27:43;;;;;;;;;;;;;;;;;;2186598;59;18284;-70
2022/02/04 03:30:19;;;;;;;;;;;;;;;;;;2189161;59;15681;-70
2022/02/04 03:32:55;;;;;;;;;;;;;;;;;;2188759;59;15541;-70
2022/02/04 03:35:31;;;;;;;;;;;;;;;;;;2188322;67;14460;-70
2022/02/04 03:38:04;;;;;;;;;;;;;;;;;;2187732;67;22626;-70
2022/02/04 03:40:38;;;;;;;;;;;;;;;;;;2188500;59;15075;-70
2022/02/04 03:43:14;;;;;;;;;;;;;;;;;;2188440;67;16251;-70
2022/02/04 03:45:47;;;;;;;;;;;;;;;;;;2187032;59;15940;-70
2022/02/04 03:48:20;;;;;;;;;;;;;;;;;;2187706;64;15043;-70
2022/02/04 03:50:53;;;;;;;;;;;;;;;;;;2190943;64;14016;-71
2022/02/04 03:53:26;;;;;;;;;;;;;;;;;;2188542;59;20662;-70
2022/02/04 03:55:59;;;;;;;;;;;;;;;;;;2187145;60;21091;-70
2022/02/04 03:58:37;;;;;;;;;;;;;;;;;;2188315;59;16233;-70
2022/02/04 04:01:11;;;;;;;;;;;;;;;;;;2187519;67;16867;-70
2022/02/04 04:03:45;;;;;;;;;;;;;;;;;;2187596;64;22437;-70
2022/02/04 04:06:19;;;;;;;;;;;;;;;;;;2187872;59;21870;-70
2022/02/04 04:08:54;;;;;;;;;;;;;;;;;;2188037;67;18672;-70
2022/02/04 04:11:27;;;;;;;;;;;;;;;;;;2188322;64;13773;-70
2022/02/04 04:14:04;;;;;;;;;;;;;;;;;;2187058;64;17630;-73
2022/02/04 04:16:37;;;;;;;;;;;;;;;;;;2187586;59;17171;-70
2022/02/04 04:19:10;;;;;;;;;;;;;;;;;;2187913;59;19385;-70
2022/02/04 04:21:43;;;;;;;;;;;;;;;;;;2188009;59;25980;-70
2022/02/04 04:24:17;;;;;;;;;;;;;;;;;;2188580;67;18505;-70
2022/02/04 04:26:50;;;;;;;;;;;;;;;;;;2187408;59;16133;-70
2022/02/04 04:29:26;;;;;;;;;;;;;;;;;;2188388;59;17728;-70
2022/02/04 04:31:59;;;;;;;;;;;;;;;;;;2187469;59;19422;-69
2022/02/04 04:34:32;;;;;;;;;;;;;;;;;;2187396;59;16568;-70
2022/02/04 04:37:06;;;;;;;;;;;;;;;;;;2187935;59;22941;-70
2022/02/04 04:39:57;;;;;;;;;;;;;;;;;;2187728;59;21960;-70
2022/02/04 04:42:47;;;;;;;;;;;;;;;;;;2188869;59;22360;-70
2022/02/04 05:28:26;;;;;;;;;;;;;;;;;;2186970;59;21370;-70
2022/02/04 05:31:00;;;;;;;;;;;;;;;;;;2187153;59;25727;-70
2022/02/04 05:33:33;;;;;;;;;;;;;;;;;;2187499;59;23247;-70
2022/02/04 05:36:10;;;;;;;;;;;;;;;;;;2188765;64;18542;-70
2022/02/04 05:38:43;;;;;;;;;;;;;;;;;;2188655;67;21305;-70
2022/02/04 05:41:22;;;;;;;;;;;;;;;;;;2187811;59;15076;-70
2022/02/04 05:43:57;;;;;;;;;;;;;;;;;;2187536;59;19069;-70
2022/02/04 05:46:33;;;;;;;;;;;;;;;;;;2188006;59;22385;-70
2022/02/04 05:49:09;;;;;;;;;;;;;;;;;;2187619;59;18534;-70
2022/02/04 05:51:51;;;;;;;;;;;;;;;;;;2188049;59;19876;-70
2022/02/04 05:54:37;;;;;;;;;;;;;;;;;;2188628;59;25327;-70
2022/02/04 05:57:11;;;;;;;;;;;;;;;;;;2187925;60;20333;-70
2022/02/04 06:00:10;;;;;;;;;;;;;;;;;;2188675;59;15502;-70
2022/02/04 06:02:51;;;;;;;;;;;;;;;;;;2188251;59;24230;-70
2022/02/04 06:05:44;;;;;;;;;;;;;;;;;;2187410;59;17406;-70
2022/02/04 06:08:39;;;;;;;;;;;;;;;;;;2187438;59;17257;-70
2022/02/04 06:11:27;;;;;;;;;;;;;;;;;;2187460;59;19559;-70
2022/02/04 06:14:27;;;;;;;;;;;;;;;;;;2186962;59;19246;-70
2022/02/04 06:22:38;;;;;;;;;;;;;;;;;;2187693;59;17828;-70
2022/02/04 06:25:14;;;;;;;;;;;;;;;;;;2188458;59;18350;-71
2022/02/04 06:27:47;;;;;;;;;;;;;;;;;;2187659;59;25903;-70
2022/02/04 06:30:21;;;;;;;;;;;;;;;;;;2188190;59;15852;-70
2022/02/04 06:32:54;;;;;;;;;;;;;;;;;;2186719;67;15674;-70
2022/02/04 06:35:27;;;;;;;;;;;;;;;;;;2187000;59;19535;-70
2022/02/04 06:38:00;;;;;;;;;;;;;;;;;;2183540;59;17350;-70
2022/02/04 06:40:36;;;;;;;;;;;;;;;;;;2186213;59;21224;-70
2022/02/04 06:43:09;;;;;;;;;;;;;;;;;;2184480;61;16161;-70
2022/02/04 06:45:43;;;;;;;;;;;;;;;;;;2185006;59;21877;-70
2022/02/04 06:48:16;;;;;;;;;;;;;;;;;;2187287;59;15104;-70
2022/02/04 06:50:49;;;;;;;;;;;;;;;;;;2187657;59;18528;-70
2022/02/04 06:53:22;;;;;;;;;;;;;;;;;;2183654;59;14496;-70
2022/02/04 06:55:58;;;;;;;;;;;;;;;;;;2184225;60;19436;-70
2022/02/04 06:58:31;;;;;;;;;;;;;;;;;;2184029;59;15758;-70
2022/02/04 07:01:04;;;;;;;;;;;;;;;;;;2186137;59;16597;-70
2022/02/04 07:03:38;;;;;;;;;;;;;;;;;;2184438;59;20321;-70
2022/02/04 07:06:15;;;;;;;;;;;;;;;;;;2186383;59;26714;-71
2022/02/04 07:09:08;;;;;;;;;;;;;;;;;;2188324;59;66702;-73
2022/02/04 07:12:07;;;;;;;;;;;;;;;;;;2186952;59;18558;-70
2022/02/04 07:14:50;;;;;;;;;;;;;;;;;;2185695;59;14716;-71
2022/02/04 07:17:29;;;;;;;;;;;;;;;;;;2187669;60;14552;-75
2022/02/04 07:20:00;;;;;;;;;;;;;;;;;;2187314;59;21082;-72
2022/02/04 07:22:34;;;;;;;;;;;;;;;;;;2188175;59;21088;-71
2022/02/04 07:25:08;;;;;;;;;;;;;;;;;;2185577;59;13789;-70
2022/02/04 07:27:45;;;;;;;;;;;;;;;;;;2188181;59;18268;-70
2022/02/04 07:30:19;;;;;;;;;;;;;;;;;;2188995;59;17435;-70
2022/02/04 07:33:00;;;;;;;;;;;;;;;;;;2188618;59;17037;-70
2022/02/04 07:38:34;;;;;;;;;;;;;;;;;;2187451;59;26122;-70
2022/02/04 07:38:47;;;;;;;;;;;;;;;;;;2187977;59;37239;-71
2022/02/04 07:41:22;;;;;;;;;;;;;;;;;;2186440;59;16734;-70
2022/02/04 07:43:58;;;;;;;;;;;;;;;;;;2187608;64;19342;-71
2022/02/04 07:46:31;;;;;;;;;;;;;;;;;;2190117;54;26492;-74
2022/02/04 07:49:05;;;;;;;;;;;;;;;;;;2190739;59;17720;-74
2022/02/04 07:51:40;;;;;;;;;;;;;;;;;;2193601;59;17059;-74
2022/02/04 07:54:14;;;;;;;;;;;;;;;;;;2197653;59;44046;-75
2022/02/04 07:56:47;;;;;;;;;;;;;;;;;;2197402;59;19440;-75
2022/02/04 07:59:23;;;;;;;;;;;;;;;;;;2191375;59;24068;-74
2022/02/04 08:01:56;;;;;;;;;;;;;;;;;;2188235;59;28260;-74
2022/02/04 08:04:32;;;;;;;;;;;;;;;;;;2192795;59;84762;-74
2022/02/04 08:07:12;;;;;;;;;;;;;;;;;;2200347;59;20047;-74
2022/02/04 08:09:56;;;;;;;;;;;;;;;;;;2197932;63;19627;-75
2022/02/04 08:15:39;;;;;;;;;;;;;;;;;;2187559;59;132226;-74
2022/02/04 08:18:33;;;;;;;;;;;;;;;;;;2197130;67;43353;-74
2022/02/04 08:21:51;;;;;;;;;;;;;;;;;;2198435;59;22690;-74
2022/02/04 08:24:56;;;;;;;;;;;;;;;;;;2186158;59;23466;-75
2022/02/04 08:27:55;;;;;;;;;;;;;;;;;;2183752;59;206411;-74
2022/02/04 08:39:13;;;;;;;;;;;;;;;;;;2191655;59;17507;-74
2022/02/04 08:53:29;;;;;;;;;;;;;;;;;;2200357;59;33140;-74
2022/02/04 08:56:00;;;;;;;;;;;;;;;;;;2192958;59;50181;-74
2022/02/04 08:58:37;;;;;;;;;;;;;;;;;;2198731;59;42086;-74
2022/02/04 09:01:16;;;;;;;;;;;;;;;;;;2189101;59;23749;-74
2022/02/04 09:04:04;;;;;;;;;;;;;;;;;;2191564;59;25547;-75
2022/02/04 09:06:42;;;;;;;;;;;;;;;;;;2191314;59;15993;-74
2022/02/04 09:09:27;;;;;;;;;;;;;;;;;;2196651;59;17121;-74
2022/02/04 09:12:22;;;;;;;;;;;;;;;;;;2192921;67;100415;-74
2022/02/04 09:18:07;;;;;;;;;;;;;;;;;;2189799;59;49566;-74
2022/02/04 09:20:57;;;;;;;;;;;;;;;;;;2198577;59;15058;-73
2022/02/04 09:23:31;;;;;;;;;;;;;;;;;;2199283;59;36203;-74
2022/02/04 09:26:06;;;;;;;;;;;;;;;;;;2189135;59;210969;-74
2022/02/04 09:28:39;;;;;;;;;;;;;;;;;;2189549;59;30171;-74
2022/02/04 09:31:12;;;;;;;;;;;;;;;;;;2190486;59;106212;-74
2022/02/04 09:33:46;;;;;;;;;;;;;;;;;;2196134;67;17618;-74
2022/02/04 09:36:22;;;;;;;;;;;;;;;;;;2196964;64;23788;-74
2022/02/04 09:38:55;;;;;;;;;;;;;;;;;;2194663;59;32455;-74
2022/02/04 09:41:29;;;;;;;;;;;;;;;;;;2193313;59;23320;-74
2022/02/04 09:44:02;;;;;;;;;;;;;;;;;;2193493;60;23675;-74
2022/02/04 09:46:36;;;;;;;;;;;;;;;;;;2189711;59;16076;-74
2022/02/04 09:49:18;;;;;;;;;;;;;;;;;;2188560;64;67553;-75
2022/02/04 10:17:28;;;;;;;;;;;;;;;;;;2191156;59;127097;-74
2022/02/04 10:20:01;;;;;;;;;;;;;;;;;;2190339;59;34487;-74
2022/02/04 10:22:35;;;;;;;;;;;;;;;;;;2192773;59;20289;-75
2022/02/04 10:25:12;;;;;;;;;;;;;;;;;;2191619;59;28301;-75
2022/02/04 10:27:51;;;;;;;;;;;;;;;;;;2189946;59;34467;-74
2022/02/04 10:30:25;;;;;;;;;;;;;;;;;;2190510;64;43908;-74
2022/02/04 10:32:59;;;;;;;;;;;;;;;;;;2190534;59;85401;-74
2022/02/04 10:35:35;;;;;;;;;;;;;;;;;;2192597;67;16955;-74
2022/02/04 10:38:15;;;;;;;;;;;;;;;;;;2194175;67;27142;-74
2022/02/04 10:40:58;;;;;;;;;;;;;;;;;;2191351;59;34796;-74
2022/02/04 10:43:56;;;;;;;;;;;;;;;;;;2193329;67;23180;-74
2022/02/04 10:46:36;;;;;;;;;;;;;;;;;;2192437;59;22259;-73
2022/02/04 10:49:26;;;;;;;;;;;;;;;;;;2191882;59;23998;-74
2022/02/04 10:52:28;;;;;;;;;;;;;;;;;;2198093;64;17345;-74
2022/02/04 11:01:15;;;;;;;;;;;;;;;;;;2187854;59;27979;-74
2022/02/04 11:03:54;;;;;;;;;;;;;;;;;;2189395;59;100010;-74
2022/02/04 11:06:45;;;;;;;;;;;;;;;;;;2195536;59;16093;-74
2022/02/04 11:09:30;;;;;;;;;;;;;;;;;;2188292;59;28430;-74
2022/02/04 11:17:11;;;;;;;;;;;;;;;;;;2195475;60;41348;-74
2022/02/04 11:35:26;;;;;;;;;;;;;;;;;;2197156;59;19287;-74
2022/02/04 11:44:11;;;;;;;;;;;;;;;;;;2185084;59;17164;-74
2022/02/04 11:52:40;;;;;;;;;;;;;;;;;;2192904;67;18520;-74
2022/02/04 11:55:28;;;;;;;;;;;;;;;;;;2193295;59;36738;-74
2022/02/04 11:58:05;;;;;;;;;;;;;;;;;;2194944;67;21659;-74
2022/02/04 12:00:40;;;;;;;;;;;;;;;;;;2192616;59;27106;-74
2022/02/04 12:03:29;;;;;;;;;;;;;;;;;;2187718;59;62043;-74
2022/02/04 12:06:05;;;;;;;;;;;;;;;;;;2190467;59;36906;-74
2022/02/04 12:08:38;;;;;;;;;;;;;;;;;;2196549;64;14887;-74
2022/02/04 12:11:20;;;;;;;;;;;;;;;;;;2189004;59;26833;-74
2022/02/04 12:14:12;;;;;;;;;;;;;;;;;;2200159;67;15796;-75
2022/02/04 12:17:03;;;;;;;;;;;;;;;;;;2191677;59;24484;-74
2022/02/04 12:19:37;;;;;;;;;;;;;;;;;;2188331;59;21543;-73
2022/02/04 12:22:14;;;;;;;;;;;;;;;;;;2190162;59;18059;-75
2022/02/04 12:24:50;;;;;;;;;;;;;;;;;;2193054;59;15560;-75
2022/02/04 12:27:35;;;;;;;;;;;;;;;;;;2190835;59;24590;-74
2022/02/04 12:30:27;;;;;;;;;;;;;;;;;;2192406;59;24768;-75
2022/02/04 12:33:01;;;;;;;;;;;;;;;;;;2188414;59;50725;-75
2022/02/04 12:35:34;;;;;;;;;;;;;;;;;;2201184;59;13589;-75
2022/02/04 12:38:10;;;;;;;;;;;;;;;;;;2196079;64;26508;-74
2022/02/04 12:40:43;;;;;;;;;;;;;;;;;;2199225;59;13116;-74
2022/02/04 12:43:17;;;;;;;;;;;;;;;;;;2198469;59;43885;-74
2022/02/04 12:45:50;;;;;;;;;;;;;;;;;;2195015;59;30809;-74
2022/02/04 12:48:23;;;;;;;;;;;;;;;;;;2198468;63;16542;-75
2022/02/04 12:50:56;;;;;;;;;;;;;;;;;;2198472;67;32081;-75
2022/02/04 12:53:40;;;;;;;;;;;;;;;;;;2201444;67;15313;-74
2022/02/04 12:56:31;;;;;;;;;;;;;;;;;;2195628;59;50409;-74
2022/02/04 12:59:38;;;;;;;;;;;;;;;;;;2204326;59;19617;-75
2022/02/04 13:02:27;;;;;;;;;;;;;;;;;;2195193;59;30653;-74
2022/02/04 13:07:57;;;;;;;;;;;;;;;;;;2189751;59;114861;-75
2022/02/04 13:10:33;;;;;;;;;;;;;;;;;;2189362;59;18151;-74
2022/02/04 13:13:08;;;;;;;;;;;;;;;;;;2189742;59;17820;-74
2022/02/04 13:15:43;;;;;;;;;;;;;;;;;;2192288;59;59270;-75
2022/02/04 13:18:18;;;;;;;;;;;;;;;;;;2195935;59;23554;-74
2022/02/04 13:20:52;;;;;;;;;;;;;;;;;;2192360;59;42331;-74
2022/02/04 13:23:27;;;;;;;;;;;;;;;;;;2193907;59;22325;-74
2022/02/04 13:26:04;;;;;;;;;;;;;;;;;;2191512;59;16330;-74
2022/02/04 13:28:38;;;;;;;;;;;;;;;;;;2191317;59;25618;-74
2022/02/04 13:31:13;;;;;;;;;;;;;;;;;;2193022;59;30698;-74
2022/02/04 13:33:48;;;;;;;;;;;;;;;;;;2192834;59;16722;-74
2022/02/04 13:36:27;;;;;;;;;;;;;;;;;;2194687;59;18946;-75
2022/02/04 13:39:11;;;;;;;;;;;;;;;;;;2194781;59;46081;-74
2022/02/04 13:42:01;;;;;;;;;;;;;;;;;;2199243;59;15033;-74
2022/02/04 13:44:42;;;;;;;;;;;;;;;;;;2199636;63;58239;-74
2022/02/04 13:47:23;;;;;;;;;;;;;;;;;;2196820;54;19552;-70
2022/02/04 13:52:57;;;;;;;;;;;;;;;;;;2194199;59;17257;-71
2022/02/04 13:55:37;;;;;;;;;;;;;;;;;;2195106;59;24634;-70
2022/02/04 13:58:27;;;;;;;;;;;;;;;;;;2202678;59;16110;-70
2022/02/04 14:01:07;;;;;;;;;;;;;;;;;;2201192;59;16476;-71
2022/02/04 14:03:44;;;;;;;;;;;;;;;;;;2197735;59;15762;-70
2022/02/04 14:06:21;;;;;;;;;;;;;;;;;;2195980;59;16353;-70
2022/02/04 14:08:57;;;;;;;;;;;;;;;;;;2193577;59;19923;-70
2022/02/04 14:11:31;;;;;;;;;;;;;;;;;;2198827;59;27724;-70
2022/02/04 14:14:09;;;;;;;;;;;;;;;;;;2198959;67;17184;-70
2022/02/04 14:16:44;;;;;;;;;;;;;;;;;;2194580;59;23285;-71
2022/02/04 14:19:17;;;;;;;;;;;;;;;;;;2198993;59;19307;-71
2022/02/04 14:21:50;;;;;;;;;;;;;;;;;;2198169;59;18470;-70
2022/02/04 14:24:23;;;;;;;;;;;;;;;;;;2192657;59;16883;-70
2022/02/04 14:26:58;;;;;;;;;;;;;;;;;;2200700;59;24343;-70
2022/02/04 14:29:42;;;;;;;;;;;;;;;;;;2200084;67;17806;-70
2022/02/04 14:32:22;;;;;;;;;;;;;;;;;;2197649;67;25017;-70
2022/02/04 14:35:13;;;;;;;;;;;;;;;;;;2198070;59;15299;-70
2022/02/04 14:49:27;;;;;;;;;;;;;;;;;;2199008;59;21817;-71
2022/02/04 15:03:30;;;;;;;;;;;;;;;;;;2197490;59;20264;-71
2022/02/04 15:06:10;;;;;;;;;;;;;;;;;;2198430;59;21788;-70
2022/02/04 15:08:44;;;;;;;;;;;;;;;;;;2196521;59;18845;-70
2022/02/04 15:11:19;;;;;;;;;;;;;;;;;;2193056;59;24821;-70
2022/02/04 15:13:52;;;;;;;;;;;;;;;;;;2198113;59;17763;-70
2022/02/04 15:16:26;;;;;;;;;;;;;;;;;;2198347;59;25607;-70
2022/02/04 15:19:02;;;;;;;;;;;;;;;;;;2200402;59;17237;-70
2022/02/04 15:21:37;;;;;;;;;;;;;;;;;;2194022;59;19757;-70
2022/02/04 15:24:11;;;;;;;;;;;;;;;;;;2193971;67;23870;-70
2022/02/04 15:26:44;;;;;;;;;;;;;;;;;;2194377;59;20199;-70
2022/02/04 15:29:18;;;;;;;;;;;;;;;;;;2193419;59;20800;-70
2022/02/04 15:31:54;;;;;;;;;;;;;;;;;;2195127;59;26349;-70
2022/02/04 15:34:33;;;;;;;;;;;;;;;;;;2198867;67;16047;-71
2022/02/04 15:37:07;;;;;;;;;;;;;;;;;;2196102;59;15478;-71
2022/02/04 15:39:40;;;;;;;;;;;;;;;;;;2186568;59;21950;-70
2022/02/04 15:42:15;;;;;;;;;;;;;;;;;;2198097;59;18637;-71
2022/02/04 15:45:00;;;;;;;;;;;;;;;;;;2195672;59;25469;-72
2022/02/04 15:47:50;;;;;;;;;;;;;;;;;;2205650;59;18402;-70
2022/02/04 15:50:36;;;;;;;;;;;;;;;;;;2196949;59;14629;-70
2022/02/04 15:53:28;;;;;;;;;;;;;;;;;;2192978;67;19354;-70
2022/02/04 15:56:19;;;;;;;;;;;;;;;;;;2192702;59;15932;-70
2022/02/04 15:59:11;;;;;;;;;;;;;;;;;;2194804;59;17170;-70
2022/02/04 16:02:00;;;;;;;;;;;;;;;;;;2196530;59;24963;-70
2022/02/04 16:04:40;;;;;;;;;;;;;;;;;;2200826;67;26365;-70
2022/02/04 16:07:18;;;;;;;;;;;;;;;;;;2193969;59;32964;-70
2022/02/04 16:09:59;;;;;;;;;;;;;;;;;;2198123;59;18483;-70
2022/02/04 16:12:39;;;;;;;;;;;;;;;;;;2192582;59;18474;-71
2022/02/04 16:15:20;;;;;;;;;;;;;;;;;;2197667;59;19001;-70
2022/02/04 16:17:57;;;;;;;;;;;;;;;;;;2195972;59;16067;-70
2022/02/04 16:20:51;;;;;;;;;;;;;;;;;;2193278;59;24028;-70
2022/02/04 16:23:32;;;;;;;;;;;;;;;;;;2192288;59;25138;-70
2022/02/04 16:26:25;;;;;;;;;;;;;;;;;;2191340;59;24635;-70
2022/02/04 16:28:58;;;;;;;;;;;;;;;;;;2192543;59;20701;-70
2022/02/04 16:31:32;;;;;;;;;;;;;;;;;;2198524;63;14937;-70
2022/02/04 16:34:09;;;;;;;;;;;;;;;;;;2193469;64;24327;-71
2022/02/04 16:36:45;;;;;;;;;;;;;;;;;;2194738;59;22099;-70
2022/02/04 16:39:23;;;;;;;;;;;;;;;;;;2194437;59;24386;-70
2022/02/04 16:42:03;;;;;;;;;;;;;;;;;;2198561;59;19378;-70
2022/02/04 16:44:36;;;;;;;;;;;;;;;;;;2189432;59;25242;-70
2022/02/04 16:47:10;;;;;;;;;;;;;;;;;;2193647;59;21407;-70
2022/02/04 16:49:43;;;;;;;;;;;;;;;;;;2194538;59;16724;-70
2022/02/04 16:52:16;;;;;;;;;;;;;;;;;;2192559;63;22844;-71
2022/02/04 16:54:52;;;;;;;;;;;;;;;;;;2197030;59;36019;-70
2022/02/04 16:57:28;;;;;;;;;;;;;;;;;;2192785;59;20665;-70
2022/02/04 17:00:09;;;;;;;;;;;;;;;;;;2195986;59;22748;-70
2022/02/04 17:02:42;;;;;;;;;;;;;;;;;;2192462;59;16464;-70
2022/02/04 17:05:16;;;;;;;;;;;;;;;;;;2195453;63;18323;-70
2022/02/04 17:07:53;;;;;;;;;;;;;;;;;;2201618;59;32333;-70
2022/02/04 17:10:32;;;;;;;;;;;;;;;;;;2204822;59;15422;-70
2022/02/04 17:13:05;;;;;;;;;;;;;;;;;;2200351;59;21451;-70
2022/02/04 17:15:40;;;;;;;;;;;;;;;;;;2201083;59;21352;-70
2022/02/04 17:18:13;;;;;;;;;;;;;;;;;;2193973;59;26409;-70
2022/02/04 17:20:48;;;;;;;;;;;;;;;;;;2198322;59;21881;-70
2022/02/04 17:23:28;;;;;;;;;;;;;;;;;;2195121;59;26695;-70
2022/02/04 17:26:04;;;;;;;;;;;;;;;;;;2197686;59;34418;-70
2022/02/04 17:28:37;;;;;;;;;;;;;;;;;;2197142;63;18063;-71
2022/02/04 17:31:11;;;;;;;;;;;;;;;;;;2196352;59;16212;-70
2022/02/04 17:33:44;;;;;;;;;;;;;;;;;;2198077;67;16695;-71
2022/02/04 17:36:17;;;;;;;;;;;;;;;;;;2202941;59;21328;-70
2022/02/04 17:38:53;;;;;;;;;;;;;;;;;;2194370;59;14958;-70
2022/02/04 17:41:29;;;;;;;;;;;;;;;;;;2192024;59;32521;-70
2022/02/04 17:44:02;;;;;;;;;;;;;;;;;;2200122;63;17751;-70
2022/02/04 17:46:36;;;;;;;;;;;;;;;;;;2199370;59;20224;-70
2022/02/04 17:49:14;;;;;;;;;;;;;;;;;;2199635;59;21176;-70
2022/02/04 17:51:53;;;;;;;;;;;;;;;;;;2200198;59;21273;-70
2022/02/04 17:54:33;;;;;;;;;;;;;;;;;;2196623;59;16917;-70
2022/02/04 17:57:19;;;;;;;;;;;;;;;;;;2198504;59;28011;-70
2022/02/04 18:03:12;;;;;;;;;;;;;;;;;;2194166;59;15410;-70
2022/02/04 18:05:58;;;;;;;;;;;;;;;;;;2192670;59;21987;-70
2022/02/04 18:08:31;;;;;;;;;;;;;;;;;;2187567;59;17178;-71
2022/02/04 18:11:05;;;;;;;;;;;;;;;;;;2188670;59;27673;-70
2022/02/04 18:13:41;;;;;;;;;;;;;;;;;;2188958;60;18370;-70
2022/02/04 18:16:14;;;;;;;;;;;;;;;;;;2191466;59;15503;-71
2022/02/04 18:18:49;;;;;;;;;;;;;;;;;;2190016;59;34587;-70
2022/02/04 18:21:22;;;;;;;;;;;;;;;;;;2184485;59;28509;-70
2022/02/04 18:23:55;;;;;;;;;;;;;;;;;;2188533;59;19007;-70
2022/02/04 18:26:28;;;;;;;;;;;;;;;;;;2190007;59;18664;-70
2022/02/04 18:29:05;;;;;;;;;;;;;;;;;;2193997;59;29649;-70
2022/02/04 18:31:38;;;;;;;;;;;;;;;;;;2190259;67;15873;-70
2022/02/04 18:34:13;;;;;;;;;;;;;;;;;;2192408;59;16948;-70
2022/02/04 18:36:48;;;;;;;;;;;;;;;;;;2189959;59;18222;-70
2022/02/04 18:39:39;;;;;;;;;;;;;;;;;;2189210;64;19579;-70
2022/02/04 18:42:45;;;;;;;;;;;;;;;;;;2190184;59;21480;-70
2022/02/04 18:45:24;;;;;;;;;;;;;;;;;;2188826;64;25231;-70
2022/02/04 18:48:01;;;;;;;;;;;;;;;;;;2196164;59;16855;-70
2022/02/04 18:50:43;;;;;;;;;;;;;;;;;;2189449;59;20408;-70
2022/02/04 18:53:33;;;;;;;;;;;;;;;;;;2189844;60;24904;-70
2022/02/04 18:56:29;;;;;;;;;;;;;;;;;;2195771;63;17763;-70
2022/02/04 18:59:05;;;;;;;;;;;;;;;;;;2193118;59;22639;-70
2022/02/04 19:01:41;;;;;;;;;;;;;;;;;;2192133;59;26641;-70
2022/02/04 19:04:19;;;;;;;;;;;;;;;;;;2191774;59;16985;-70
2022/02/04 19:06:59;;;;;;;;;;;;;;;;;;2191591;59;16074;-71
2022/02/04 19:09:33;;;;;;;;;;;;;;;;;;2202918;59;19945;-70
2022/02/04 19:12:12;;;;;;;;;;;;;;;;;;2199716;59;22124;-70
2022/02/04 19:14:50;;;;;;;;;;;;;;;;;;2201876;59;24423;-70
2022/02/04 19:17:32;;;;;;;;;;;;;;;;;;2194449;59;32513;-70
2022/02/04 19:20:11;;;;;;;;;;;;;;;;;;2206675;63;16440;-70
2022/02/04 19:22:53;;;;;;;;;;;;;;;;;;2202211;63;15247;-70
2022/02/04 19:25:29;;;;;;;;;;;;;;;;;;2200181;59;39021;-70
2022/02/04 19:28:03;;;;;;;;;;;;;;;;;;2196952;59;14701;-70
2022/02/04 19:30:45;;;;;;;;;;;;;;;;;;2195217;67;22916;-70
2022/02/04 19:33:22;;;;;;;;;;;;;;;;;;2192026;59;30887;-70
2022/02/04 19:35:58;;;;;;;;;;;;;;;;;;2195618;59;19160;-71
2022/02/04 19:38:31;;;;;;;;;;;;;;;;;;2194044;59;19922;-70
2022/02/04 19:41:04;;;;;;;;;;;;;;;;;;2193358;59;19772;-70
2022/02/04 19:43:37;;;;;;;;;;;;;;;;;;2192673;59;18122;-70
2022/02/04 19:46:14;;;;;;;;;;;;;;;;;;2195594;54;17251;-71
2022/02/04 19:48:54;;;;;;;;;;;;;;;;;;2197636;59;16725;-71
2022/02/04 19:51:36;;;;;;;;;;;;;;;;;;2196772;59;47989;-71
2022/02/04 19:54:33;;;;;;;;;;;;;;;;;;2197883;59;18806;-71
2022/02/04 20:25:20;;;;;;;;;;;;;;;;;;2201380;59;34358;-71
2022/02/04 20:27:59;;;;;;;;;;;;;;;;;;2203407;58;15971;-71
2022/02/04 20:30:32;;;;;;;;;;;;;;;;;;2203825;58;42065;-70
2022/02/04 20:33:05;;;;;;;;;;;;;;;;;;2207305;66;16082;-72
2022/02/04 20:35:39;;;;;;;;;;;;;;;;;;2196442;59;15986;-71
2022/02/04 20:38:16;;;;;;;;;;;;;;;;;;2197731;59;28981;-71
2022/02/04 20:40:57;;;;;;;;;;;;;;;;;;2197562;59;17223;-71
2022/02/04 20:43:31;;;;;;;;;;;;;;;;;;2197541;59;18421;-71
2022/02/04 20:46:04;;;;;;;;;;;;;;;;;;2198639;59;18713;-70
2022/02/04 20:48:37;;;;;;;;;;;;;;;;;;2201166;59;16249;-71
2022/02/04 20:51:11;;;;;;;;;;;;;;;;;;2205108;58;16490;-71
2022/02/04 20:53:46;;;;;;;;;;;;;;;;;;2200813;59;25109;-71
2022/02/04 20:56:20;;;;;;;;;;;;;;;;;;2196481;59;19646;-71
2022/02/04 20:58:53;;;;;;;;;;;;;;;;;;2196578;59;22356;-71
2022/02/04 21:01:26;;;;;;;;;;;;;;;;;;2197475;59;13911;-72
2022/02/04 21:04:04;;;;;;;;;;;;;;;;;;2196400;59;22033;-71
2022/02/04 21:06:47;;;;;;;;;;;;;;;;;;2197847;59;18598;-72
2022/02/04 21:15:14;;;;;;;;;;;;;;;;;;2196157;59;15942;-71
2022/02/04 21:17:48;;;;;;;;;;;;;;;;;;2197135;59;16087;-71
2022/02/04 21:20:21;;;;;;;;;;;;;;;;;;2197112;59;16853;-71
2022/02/04 21:22:55;;;;;;;;;;;;;;;;;;2196988;59;15987;-71
2022/02/04 21:25:31;;;;;;;;;;;;;;;;;;2195286;59;21460;-71
2022/02/04 21:28:07;;;;;;;;;;;;;;;;;;2196267;59;27380;-71
2022/02/04 21:30:44;;;;;;;;;;;;;;;;;;2196352;59;17118;-71
2022/02/04 21:33:23;;;;;;;;;;;;;;;;;;2196608;64;19657;-71
2022/02/04 21:38:45;;;;;;;;;;;;;;;;;;2197565;59;18007;-71
2022/02/04 21:41:21;;;;;;;;;;;;;;;;;;2196319;59;21641;-71
2022/02/04 21:43:54;;;;;;;;;;;;;;;;;;2197138;59;17013;-71
2022/02/04 21:46:29;;;;;;;;;;;;;;;;;;2205442;58;13754;-71
2022/02/04 21:49:02;;;;;;;;;;;;;;;;;;2202462;58;21650;-71
2022/02/04 21:51:36;;;;;;;;;;;;;;;;;;2202852;59;13302;-71
2022/02/04 21:54:09;;;;;;;;;;;;;;;;;;2197318;59;18732;-71
2022/02/04 21:56:45;;;;;;;;;;;;;;;;;;2197487;59;20665;-71
2022/02/04 21:59:18;;;;;;;;;;;;;;;;;;2197382;59;18265;-71
2022/02/04 22:01:51;;;;;;;;;;;;;;;;;;2197756;59;19826;-71
2022/02/04 22:04:25;;;;;;;;;;;;;;;;;;2197721;59;15080;-71
2022/02/04 22:06:59;;;;;;;;;;;;;;;;;;2196962;59;20858;-73
2022/02/04 22:09:42;;;;;;;;;;;;;;;;;;2198717;63;13107;-71
2022/02/04 22:15:22;;;;;;;;;;;;;;;;;;2197071;60;20462;-71
2022/02/04 22:22:00;;;;;;;;;;;;;;;;;;2202062;59;23521;-71
2022/02/04 22:23:44;;;;;;;;;;;;;;;;;;2197377;59;16525;-71
2022/02/04 22:26:18;;;;;;;;;;;;;;;;;;2197352;59;20412;-71
2022/02/04 22:28:55;;;;;;;;;;;;;;;;;;2197025;59;13717;-71
2022/02/04 22:31:29;;;;;;;;;;;;;;;;;;2197308;64;15095;-71
2022/02/04 22:34:14;;;;;;;;;;;;;;;;;;2198170;64;22550;-71
2022/02/04 22:37:19;;;;;;;;;;;;;;;;;;2196583;59;17975;-71
2022/02/04 22:48:43;;;;;;;;;;;;;;;;;;2202436;59;22024;-71
2022/02/04 22:51:34;;;;;;;;;;;;;;;;;;2202670;59;28028;-71
2022/02/04 22:54:21;;;;;;;;;;;;;;;;;;2199668;59;13111;-71
2022/02/04 22:57:05;;;;;;;;;;;;;;;;;;2205761;66;17094;-71
2022/02/04 22:59:42;;;;;;;;;;;;;;;;;;2203796;59;12996;-71